Check time and date!

LGTT 191400Z 03015KT 9999 FEW030 29/09 Q1016
TAF LGTT 191000Z 1912/1921 04012KT 9999 FEW020 TEMPO 1912/1918 04015G25KT
--------------------------------------
LGMG 191400Z 03012G25KT 9999 FEW018 32/11 Q1014
TAF LGMG 191000Z 1912/1921 36012KT 9999 FEW020 TEMPO 1912/1916 34012G22KT
--------------------------------------
LGTG 191350Z 36008KT 9999 FEW030 30/09 Q1017
--------------------------------------
LGEL 191420Z 02008G18KT CAVOK 32/10 Q1014
TAF LGEL 191100Z 1912/2012 35013KT 9999 FEW020 TEMPO 1912/1916 01013G23KT
--------------------------------------
LGAV 191420Z 04021KT CAVOK 29/10 Q1016 RMK NOSIG
TAF LGAV 191100Z 1912/2012 03018G28KT 9999 FEW020 BECMG 1917/1919 03015KT BECMG 2003/2005 03015G25KT
--------------------------------------
LGAT 191400Z AUTO 03008KT 330V110 //// // ////// 31/08 Q1015 RE//
--------------------------------------
METAR LGAD 191420Z 30010KT 9999 FEW020 30/16 Q1014
METAR LGAL 191420Z 07010KT 9999 FEW025 32/09 Q1015
METAR LGAV 191350Z 04025KT CAVOK 29/10 Q1015 NOSIG
METAR LGBL 191420Z 11014KT 9999 FEW030 30/15 Q1016
METAR LGEL 191420Z 02008G18KT CAVOK 32/10 Q1014
METAR LGHI 191350Z 02014KT CAVOK 29/12 Q1012
METAR LGIR 191350Z 32016KT 9999 FEW025 27/16 Q1013 NOSIG
METAR LGKC 191350Z 05015KT CAVOK 27/18 Q1016
METAR LGKF 191350Z 27008KT 9999 FEW018 30/22 Q1016
METAR LGKL 191420Z 14006KT 9999 FEW030 31/14 Q1014
METAR LGKO 191420Z 35016KT 310V020 CAVOK 30/18 Q1010
METAR LGKP 191420Z 32024KT CAVOK 27/17 Q1010
METAR LGKR 191350Z 26013KT CAVOK 31/15 Q1015 NOSIG
METAR LGKV 191420Z 24008KT 9999 FEW025 28/18 Q1016
METAR LGKZ 191420Z AUTO 11009KT 070V140 //// // ////// 30/09 Q1019 RE//
METAR LGLM 191420Z 01008KT CAVOK 29/14 Q1016
METAR LGLR 191350Z 07012KT 9999 FEW030 32/12 Q1016 RMK FEW080 BLU
METAR LGMK 191420Z 35021G31KT CAVOK 27/13 Q1013
METAR LGMT 191420Z 33009KT 290V010 CAVOK 28/17 Q1014
METAR LGNX 191350Z /////KT CAVOK 26/13 Q1013
METAR LGPA 191350Z 36025G35KT CAVOK 27/16 Q1012
METAR LGPZ 191420Z 25010KT CAVOK 29/20 Q1016
METAR LGRP 191350Z 25012KT 9999 FEW020 30/18 Q1008 NOSIG
METAR LGRX 191420Z 30004KT CAVOK 33/12 Q1014
METAR LGSA 191420Z 32009KT CAVOK 28/16 Q1014
METAR LGSK 191350Z 05006KT 9999 FEW025 28/17 Q1016
METAR LGSM 191420Z 34012KT 310V010 CAVOK 30/12 Q1010
METAR LGSO 191350Z 35020G30KT CAVOK 26/16 Q1014
METAR LGSR 191420Z 36011KT CAVOK 27/16 Q1013
METAR LGSY 191420Z 33012KT CAVOK 27/16 Q1016
METAR LGTS 191420Z 20008KT 9999 FEW025 31/15 Q1016 NOSIG
METAR LGZA 191420Z 35005KT 9999 FEW020 33/16 Q1014

--------------------------------------
TAF LGAD 191400Z 1915/1924 29012KT 9999 FEW020 BECMG 1919/1921 07008KT
TAF LGAL 191400Z 1915/1924 06015KT 9999 FEW020
TAF LGAV 191100Z 1912/2012 03018G28KT 9999 FEW020 BECMG 1917/1919 03015KT BECMG 2003/2005 03015G25KT
TAF LGBL 191400Z 1915/1924 10012KT 9999 FEW030 BECMG 1919/1921 28008KT
TAF LGEL 191100Z 1912/2012 35013KT 9999 FEW020 TEMPO 1912/1916 01013G23KT
TAF LGHI 191400Z 1915/1924 02018KT 9999 FEW020 TEMPO 1915/1920 02018G28KT
TAF LGIO 191400Z 1915/1924 VRB03KT 9999 FEW030 SCT080 BECMG 1918/1920 CAVOK
TAF LGIR 191100Z 1912/2012 33018KT 9999 FEW025
TAF LGKC 191400Z 1915/1924 03018KT 9999 FEW018 TEMPO 1915/1919 03018G28KT
TAF LGKF 191400Z 1915/1924 32012KT 9999 FEW016 BECMG 1918/1920 VRB05KT
TAF LGKL 191400Z 1915/1924 18010KT 9999 FEW030 BECMG 1916/1918 01010KT
TAF LGKO 191100Z 1912/2012 35018KT 9999 FEW020 TEMPO 1912/1920 35020G30KT
TAF LGKP 191400Z 1915/1924 30018G28KT 9999 FEW020
TAF LGKR 191100Z 1912/2012 25010KT 9999 FEW020 BECMG 1916/1918 VRB05KT
TAF LGKV 191100Z 1912/2012 VRB03KT 9999 FEW030 BECMG 1916/1918 06010KT CAVOK BECMG 2010/2012 22010KT
TAF LGLM 191400Z 1915/1924 04015KT 9999 FEW020
TAF LGLR 191400Z 1915/1924 10012KT 9999 FEW030 BECMG 1919/1921 VRB03KT
TAF LGMK 191400Z 1915/1924 36026G36KT 9999 FEW012 BECMG 1919/1921 36016G26KT
TAF LGMT 191400Z 1915/1924 36015KT 9999 FEW020 TEMPO 1915/1918 36015G25KT
TAF LGPZ 191100Z 1912/2012 27015KT 9999 FEW020 BECMG 1918/1920 VRB05KT BECMG 2006/2008 07010KT
TAF LGRP 191100Z 1912/2012 28010KT 9999 FEW020 BECMG 1916/1918 VRB05KT
TAF LGRX 191400Z 1915/1924 29012KT 9999 FEW020 BECMG 1919/1921 06008KT
TAF LGSA 191100Z 1912/2012 36013KT 9999 FEW025
TAF LGSK 191400Z 1915/1924 05010KT 9999 FEW020 BECMG 1916/1918 VRB05KT
TAF LGSM 191400Z 1915/1924 36015KT 9999 FEW020 TEMPO 1915/1919 36015G25KT
TAF LGSR 191100Z 1912/2012 35024KT 9999 FEW020 TEMPO 1912/1920 35022G32KT
TAF LGST 191400Z 1915/1924 30020KT 9999 FEW020 TEMPO 1915/1920 30020G30KT
TAF LGSY 191400Z 1915/1924 02015KT 9999 FEW020
TAF LGTG 191400Z 1915/1924 01010KT 9999 FEW030 BECMG 1916/1918 33010KT
TAF LGTL 191400Z 1915/1924 01010G20KT 9999 FEW025 BECMG 1916/1918 01012KT
TAF LGTS 191100Z 1912/2012 18012KT 9999 FEW025 BECMG 1918/1920 VRB03KT BECMG 2010/2012 18012KT
TAF LGZA 191400Z 1915/1924 31012KT 9999 FEW020 BECMG 1918/1920 01010KT